Poznan Lawica General Airport Poznan PL
ICAO: EPPO
IATA: POZ
Category: Large
Scheduled Services: Yes

Elevation: 308 ft
TransAlt. 6562 ft.

Airport Communications:
POZNAN APP:135.525
POZNAN ATIS:124.7
POZNAN TWR:119.975

EPPO Zoom In..

If you have problems with the map follow the link
https://www.worldairports.se/pages/airport.php?
ICAO=EPPO

Runways:

(A) RW 10 length 8215 ft width 164 ft
---- / hdg 104

(B) RW 28 length 8215 ft width 164 ft
ILS 110.30 / hdg 284

Location; EPPO
Day. 14 / Time. 08.30 Zulu
* QNH: 1011
* Temperature: 03° c. 37.4°f.
* Wind from: 180° Speed 06 kn.
Dewpoint: 02° c.
Visibility: 8000 m.
Clouds: Few 200 ft.

EPPO 140830Z 18006KT 8000 FEW002 03/02 Q1011


Wind From 180°
Speed 06 kn.

 
 
jpsmedia worldairports.se 2019   terms of use